Time;durP1;ratioP1;P1;durP2;ratioP2;P2;SDS_P1;SDS_P2;PMS_P1;PMS_P2;Temp;Humidity;BMP_temperature;BMP_pressure;BME280_temperature;BME280_humidity;BME280_pressure;Samples;Min_cycle;Max_cycle;Signal;HPM_P1;HPM_P2
2023/02/05 00:01:51;;;;;;;;;;;;;;;;;;4994841;28;19922;-79
2023/02/05 00:04:17;;;;;;;;;;;;;;;;;;4996255;28;19929;-78
2023/02/05 00:06:43;;;;;;;;;;;;;;;;;;4980537;28;19933;-77
2023/02/05 00:09:10;;;;;;;;;;;;;;;;;;4978178;28;20446;-77
2023/02/05 00:11:36;;;;;;;;;;;;;;;;;;4996214;28;19918;-77
2023/02/05 00:14:02;;;;;;;;;;;;;;;;;;4995547;28;19924;-78
2023/02/05 00:16:28;;;;;;;;;;;;;;;;;;4998256;28;20673;-78
2023/02/05 00:18:59;;;;;;;;;;;;;;;;;;4975349;28;20471;-78
2023/02/05 00:21:26;;;;;;;;;;;;;;;;;;4980558;28;19923;-79
2023/02/05 00:23:52;;;;;;;;;;;;;;;;;;4977228;28;19929;-78
2023/02/05 00:26:18;;;;;;;;;;;;;;;;;;4995372;28;19929;-78
2023/02/05 00:28:44;;;;;;;;;;;;;;;;;;4993865;28;19951;-79
2023/02/05 00:31:11;;;;;;;;;;;;;;;;;;4997697;28;19931;-78
2023/02/05 00:33:37;;;;;;;;;;;;;;;;;;4977286;28;20410;-78
2023/02/05 00:36:03;;;;;;;;;;;;;;;;;;4993730;28;19953;-78
2023/02/05 00:38:29;;;;;;;;;;;;;;;;;;4978218;28;19918;-78
2023/02/05 00:40:56;;;;;;;;;;;;;;;;;;4996065;28;19926;-78
2023/02/05 00:43:22;;;;;;;;;;;;;;;;;;4994956;28;19921;-79
2023/02/05 00:45:48;;;;;;;;;;;;;;;;;;4988953;28;19972;-78
2023/02/05 00:48:14;;;;;;;;;;;;;;;;;;4988683;28;20448;-78
2023/02/05 00:50:41;;;;;;;;;;;;;;;;;;4978430;28;19922;-79
2023/02/05 00:53:07;;;;;;;;;;;;;;;;;;4974107;28;19921;-79
2023/02/05 00:55:34;;;;;;;;;;;;;;;;;;4992895;28;19957;-79
2023/02/05 00:58:00;;;;;;;;;;;;;;;;;;4970320;28;19936;-79
2023/02/05 01:00:26;;;;;;;;;;;;;;;;;;4974728;28;19927;-78
2023/02/05 01:02:53;;;;;;;;;;;;;;;;;;4979735;28;20391;-78
2023/02/05 01:05:19;;;;;;;;;;;;;;;;;;4997712;28;19921;-79
2023/02/05 01:07:45;;;;;;;;;;;;;;;;;;4989688;28;19960;-78
2023/02/05 01:10:12;;;;;;;;;;;;;;;;;;4978941;28;19925;-79
2023/02/05 01:12:38;;;;;;;;;;;;;;;;;;4969220;28;19925;-78
2023/02/05 01:15:04;;;;;;;;;;;;;;;;;;4992216;28;20056;-78
2023/02/05 01:17:30;;;;;;;;;;;;;;;;;;4990550;28;19929;-78
2023/02/05 01:19:56;;;;;;;;;;;;;;;;;;4994719;28;19921;-78
2023/02/05 01:22:23;;;;;;;;;;;;;;;;;;4977919;28;19925;-77
2023/02/05 01:24:49;;;;;;;;;;;;;;;;;;4972578;28;19918;-78
2023/02/05 01:27:15;;;;;;;;;;;;;;;;;;4986257;28;19929;-78
2023/02/05 01:29:41;;;;;;;;;;;;;;;;;;4969845;28;19929;-79
2023/02/05 01:32:08;;;;;;;;;;;;;;;;;;4984868;28;20012;-77
2023/02/05 01:34:34;;;;;;;;;;;;;;;;;;4995060;28;20327;-78
2023/02/05 01:37:00;;;;;;;;;;;;;;;;;;4974770;28;20361;-77
2023/02/05 01:39:26;;;;;;;;;;;;;;;;;;4994457;28;19925;-77
2023/02/05 01:41:53;;;;;;;;;;;;;;;;;;4967495;28;20513;-76
2023/02/05 01:44:23;;;;;;;;;;;;;;;;;;4989878;28;20487;-78
2023/02/05 01:46:49;;;;;;;;;;;;;;;;;;4987912;28;19925;-78
2023/02/05 01:49:15;;;;;;;;;;;;;;;;;;4977597;28;19929;-77
2023/02/05 01:51:42;;;;;;;;;;;;;;;;;;4975038;28;19926;-77
2023/02/05 01:54:08;;;;;;;;;;;;;;;;;;4978008;28;19979;-78
2023/02/05 01:56:34;;;;;;;;;;;;;;;;;;4989772;28;19925;-78
2023/02/05 01:59:00;;;;;;;;;;;;;;;;;;4977691;28;19929;-77
2023/02/05 02:01:26;;;;;;;;;;;;;;;;;;4980354;28;19922;-78
2023/02/05 02:03:53;;;;;;;;;;;;;;;;;;4976390;28;19917;-77
2023/02/05 02:06:19;;;;;;;;;;;;;;;;;;4977875;28;19929;-77
2023/02/05 02:08:45;;;;;;;;;;;;;;;;;;4989757;28;19964;-78
2023/02/05 02:11:11;;;;;;;;;;;;;;;;;;4971641;28;19922;-79
2023/02/05 02:13:38;;;;;;;;;;;;;;;;;;4978133;28;19922;-77
2023/02/05 02:16:04;;;;;;;;;;;;;;;;;;4973160;28;19932;-78
2023/02/05 02:18:30;;;;;;;;;;;;;;;;;;4975822;28;19925;-79
2023/02/05 02:20:56;;;;;;;;;;;;;;;;;;4979292;28;19925;-79
2023/02/05 02:23:22;;;;;;;;;;;;;;;;;;4994722;28;20008;-79
2023/02/05 02:25:49;;;;;;;;;;;;;;;;;;4990972;28;19926;-78
2023/02/05 02:28:15;;;;;;;;;;;;;;;;;;4978119;28;20031;-79
2023/02/05 02:30:41;;;;;;;;;;;;;;;;;;4979230;28;20415;-78
2023/02/05 02:33:07;;;;;;;;;;;;;;;;;;4978991;28;20665;-79
2023/02/05 02:35:33;;;;;;;;;;;;;;;;;;4997585;28;20478;-79
2023/02/05 02:38:00;;;;;;;;;;;;;;;;;;4992953;28;21353;-78
2023/02/05 02:40:27;;;;;;;;;;;;;;;;;;4981555;28;19921;-79
2023/02/05 02:42:53;;;;;;;;;;;;;;;;;;4976261;28;19976;-79
2023/02/05 02:45:19;;;;;;;;;;;;;;;;;;4996102;28;20384;-78
2023/02/05 02:47:46;;;;;;;;;;;;;;;;;;4972932;28;20412;-78
2023/02/05 02:50:12;;;;;;;;;;;;;;;;;;4981782;28;19957;-78
2023/02/05 02:52:38;;;;;;;;;;;;;;;;;;4979394;28;19925;-79
2023/02/05 02:55:07;;;;;;;;;;;;;;;;;;4978792;28;19917;-78
2023/02/05 02:57:33;;;;;;;;;;;;;;;;;;4995024;28;19936;-78
2023/02/05 02:59:59;;;;;;;;;;;;;;;;;;4976551;28;19917;-78
2023/02/05 03:02:25;;;;;;;;;;;;;;;;;;4995545;28;19929;-78
2023/02/05 03:04:52;;;;;;;;;;;;;;;;;;4975840;28;19929;-78
2023/02/05 03:07:18;;;;;;;;;;;;;;;;;;4997408;28;19926;-78
2023/02/05 03:09:44;;;;;;;;;;;;;;;;;;4997558;28;19917;-78
2023/02/05 03:12:10;;;;;;;;;;;;;;;;;;4977259;28;19921;-77
2023/02/05 03:14:37;;;;;;;;;;;;;;;;;;4976956;28;20109;-78
2023/02/05 03:17:03;;;;;;;;;;;;;;;;;;4992932;28;19937;-78
2023/02/05 03:19:29;;;;;;;;;;;;;;;;;;4994899;28;19964;-78
2023/02/05 03:21:55;;;;;;;;;;;;;;;;;;4954731;28;19925;-77
2023/02/05 03:24:21;;;;;;;;;;;;;;;;;;4986371;28;20646;-78
2023/02/05 03:26:48;;;;;;;;;;;;;;;;;;4989153;28;20810;-77
2023/02/05 03:29:14;;;;;;;;;;;;;;;;;;4980166;28;20199;-78
2023/02/05 03:31:40;;;;;;;;;;;;;;;;;;4994153;28;19919;-79
2023/02/05 03:34:06;;;;;;;;;;;;;;;;;;4994443;28;19925;-79
2023/02/05 03:36:33;;;;;;;;;;;;;;;;;;4988988;28;19998;-78
2023/02/05 03:38:59;;;;;;;;;;;;;;;;;;4971107;28;19921;-79
2023/02/05 03:41:54;;;;;;;;;;;;;;;;;;4997198;28;19922;-79
2023/02/05 03:44:11;;;;;;;;;;;;;;;;;;4974909;28;20006;-78
2023/02/05 03:46:37;;;;;;;;;;;;;;;;;;4981359;28;19926;-79
2023/02/05 03:49:04;;;;;;;;;;;;;;;;;;4981194;28;20150;-78
2023/02/05 03:51:30;;;;;;;;;;;;;;;;;;4997047;28;21207;-77
2023/02/05 03:53:56;;;;;;;;;;;;;;;;;;4978524;28;20719;-79
2023/02/05 03:56:22;;;;;;;;;;;;;;;;;;4998540;28;19922;-79
2023/02/05 03:58:49;;;;;;;;;;;;;;;;;;4975008;28;19924;-78
2023/02/05 04:01:15;;;;;;;;;;;;;;;;;;4997149;28;19969;-79
2023/02/05 04:03:41;;;;;;;;;;;;;;;;;;4998139;28;19922;-79
2023/02/05 04:06:07;;;;;;;;;;;;;;;;;;4981264;28;19928;-79
2023/02/05 04:08:34;;;;;;;;;;;;;;;;;;4998238;28;19929;-77
2023/02/05 04:11:00;;;;;;;;;;;;;;;;;;4981870;28;19922;-76
2023/02/05 04:13:26;;;;;;;;;;;;;;;;;;4986098;28;19928;-78
2023/02/05 04:15:52;;;;;;;;;;;;;;;;;;4985508;28;19925;-78
2023/02/05 04:18:18;;;;;;;;;;;;;;;;;;4984120;28;19996;-77
2023/02/05 04:20:45;;;;;;;;;;;;;;;;;;4982455;28;19914;-77
2023/02/05 04:23:11;;;;;;;;;;;;;;;;;;4999307;28;19922;-77
2023/02/05 04:25:37;;;;;;;;;;;;;;;;;;5002717;28;19928;-77
2023/02/05 04:28:04;;;;;;;;;;;;;;;;;;4983429;28;19990;-77
2023/02/05 04:30:30;;;;;;;;;;;;;;;;;;4979230;28;19925;-77
2023/02/05 04:32:56;;;;;;;;;;;;;;;;;;4983453;28;20719;-78
2023/02/05 04:35:23;;;;;;;;;;;;;;;;;;4985120;28;19921;-78
2023/02/05 04:37:49;;;;;;;;;;;;;;;;;;4979143;28;19918;-78
2023/02/05 04:40:15;;;;;;;;;;;;;;;;;;4976327;28;20333;-78
2023/02/05 04:42:42;;;;;;;;;;;;;;;;;;4979757;28;19918;-77
2023/02/05 04:45:08;;;;;;;;;;;;;;;;;;4982465;28;19972;-77
2023/02/05 04:47:34;;;;;;;;;;;;;;;;;;4973418;28;20377;-77
2023/02/05 04:50:01;;;;;;;;;;;;;;;;;;4972824;28;19933;-77
2023/02/05 04:52:29;;;;;;;;;;;;;;;;;;4974203;28;20375;-77
2023/02/05 04:54:56;;;;;;;;;;;;;;;;;;4975753;28;19945;-77
2023/02/05 04:57:23;;;;;;;;;;;;;;;;;;4993636;28;19964;-77
2023/02/05 04:59:49;;;;;;;;;;;;;;;;;;4975292;28;20030;-76
2023/02/05 05:02:15;;;;;;;;;;;;;;;;;;4968267;28;20006;-78
2023/02/05 05:04:41;;;;;;;;;;;;;;;;;;4957080;28;20003;-78
2023/02/05 05:07:09;;;;;;;;;;;;;;;;;;4974078;28;19926;-78
2023/02/05 05:09:35;;;;;;;;;;;;;;;;;;4977284;28;19976;-77
2023/02/05 05:12:01;;;;;;;;;;;;;;;;;;4971294;28;19921;-77
2023/02/05 05:14:27;;;;;;;;;;;;;;;;;;4974993;28;20593;-77
2023/02/05 05:16:53;;;;;;;;;;;;;;;;;;4974368;28;19936;-76
2023/02/05 05:19:20;;;;;;;;;;;;;;;;;;4993932;28;19929;-76
2023/02/05 05:21:46;;;;;;;;;;;;;;;;;;4984969;28;19960;-78
2023/02/05 05:24:12;;;;;;;;;;;;;;;;;;4977202;28;19926;-77
2023/02/05 05:26:42;;;;;;;;;;;;;;;;;;4978744;28;19929;-78
2023/02/05 05:29:08;;;;;;;;;;;;;;;;;;4975170;28;20601;-78
2023/02/05 05:31:35;;;;;;;;;;;;;;;;;;4996065;28;19922;-78
2023/02/05 05:34:01;;;;;;;;;;;;;;;;;;4994799;28;19922;-77
2023/02/05 05:36:27;;;;;;;;;;;;;;;;;;4975458;28;20368;-77
2023/02/05 05:38:53;;;;;;;;;;;;;;;;;;4993228;28;20372;-78
2023/02/05 05:44:05;;;;;;;;;;;;;;;;;;4975426;28;19918;-77
2023/02/05 05:46:31;;;;;;;;;;;;;;;;;;4997146;28;20309;-77
2023/02/05 05:48:57;;;;;;;;;;;;;;;;;;4994658;28;20301;-77
2023/02/05 05:51:23;;;;;;;;;;;;;;;;;;4969173;28;20293;-77
2023/02/05 05:53:50;;;;;;;;;;;;;;;;;;4978303;28;19972;-77
2023/02/05 05:56:16;;;;;;;;;;;;;;;;;;4977407;28;20408;-77
2023/02/05 05:58:42;;;;;;;;;;;;;;;;;;4978558;28;19918;-76
2023/02/05 06:01:08;;;;;;;;;;;;;;;;;;4978572;28;19922;-78
2023/02/05 06:03:35;;;;;;;;;;;;;;;;;;4978412;28;19925;-78
2023/02/05 06:06:01;;;;;;;;;;;;;;;;;;4965641;28;20037;-78
2023/02/05 06:08:27;;;;;;;;;;;;;;;;;;4981300;28;20016;-78
2023/02/05 06:10:53;;;;;;;;;;;;;;;;;;4974406;28;19932;-78
2023/02/05 06:13:19;;;;;;;;;;;;;;;;;;4994146;28;20648;-78
2023/02/05 06:15:47;;;;;;;;;;;;;;;;;;4964092;28;19925;-78
2023/02/05 06:18:13;;;;;;;;;;;;;;;;;;4979682;28;19956;-78
2023/02/05 06:20:40;;;;;;;;;;;;;;;;;;5000753;28;19929;-78
2023/02/05 06:23:06;;;;;;;;;;;;;;;;;;4982211;28;20337;-78
2023/02/05 06:25:32;;;;;;;;;;;;;;;;;;4970269;28;19921;-78
2023/02/05 06:27:58;;;;;;;;;;;;;;;;;;4975504;28;19924;-78
2023/02/05 06:30:24;;;;;;;;;;;;;;;;;;4985468;28;19921;-77
2023/02/05 06:32:51;;;;;;;;;;;;;;;;;;4979935;28;19917;-78
2023/02/05 06:35:17;;;;;;;;;;;;;;;;;;4982204;28;19926;-80
2023/02/05 06:37:43;;;;;;;;;;;;;;;;;;4983102;28;19922;-78
2023/02/05 06:40:09;;;;;;;;;;;;;;;;;;4997657;28;21417;-76
2023/02/05 06:42:36;;;;;;;;;;;;;;;;;;4979828;28;20019;-77
2023/02/05 06:45:02;;;;;;;;;;;;;;;;;;4982133;28;19944;-77
2023/02/05 06:47:28;;;;;;;;;;;;;;;;;;4992157;28;19965;-77
2023/02/05 06:49:57;;;;;;;;;;;;;;;;;;4977648;28;19925;-77
2023/02/05 06:52:23;;;;;;;;;;;;;;;;;;4993803;28;19929;-76
2023/02/05 06:54:49;;;;;;;;;;;;;;;;;;4983651;28;19971;-78
2023/02/05 06:57:15;;;;;;;;;;;;;;;;;;4991958;28;19918;-78
2023/02/05 06:59:42;;;;;;;;;;;;;;;;;;4997525;28;20373;-78
2023/02/05 07:02:08;;;;;;;;;;;;;;;;;;4996654;28;19926;-78
2023/02/05 07:04:34;;;;;;;;;;;;;;;;;;4994243;28;20425;-78
2023/02/05 07:07:00;;;;;;;;;;;;;;;;;;4977779;28;19925;-78
2023/02/05 07:09:27;;;;;;;;;;;;;;;;;;4976838;28;20427;-77
2023/02/05 07:11:53;;;;;;;;;;;;;;;;;;4979350;28;19922;-78
2023/02/05 07:14:19;;;;;;;;;;;;;;;;;;4972300;28;20397;-78
2023/02/05 07:16:45;;;;;;;;;;;;;;;;;;4991454;28;19933;-77
2023/02/05 07:19:12;;;;;;;;;;;;;;;;;;4973045;28;19922;-77
2023/02/05 07:21:38;;;;;;;;;;;;;;;;;;4976634;28;20504;-77
2023/02/05 07:24:04;;;;;;;;;;;;;;;;;;4970403;28;19921;-76
2023/02/05 07:26:31;;;;;;;;;;;;;;;;;;4972746;28;20419;-75
2023/02/05 07:28:57;;;;;;;;;;;;;;;;;;4987007;28;19984;-77
2023/02/05 07:31:24;;;;;;;;;;;;;;;;;;4977811;28;19933;-78
2023/02/05 07:33:50;;;;;;;;;;;;;;;;;;4970038;28;19925;-78
2023/02/05 07:36:16;;;;;;;;;;;;;;;;;;4992677;28;19917;-77
2023/02/05 07:38:42;;;;;;;;;;;;;;;;;;4991977;28;19956;-76
2023/02/05 07:41:09;;;;;;;;;;;;;;;;;;4969011;28;20526;-75
2023/02/05 07:43:35;;;;;;;;;;;;;;;;;;4992157;28;20397;-76
2023/02/05 07:46:01;;;;;;;;;;;;;;;;;;4989445;28;19933;-76
2023/02/05 07:48:28;;;;;;;;;;;;;;;;;;4978402;28;19926;-76
2023/02/05 07:50:54;;;;;;;;;;;;;;;;;;4971543;28;21266;-76
2023/02/05 07:53:20;;;;;;;;;;;;;;;;;;4978901;28;19917;-77
2023/02/05 07:55:46;;;;;;;;;;;;;;;;;;4976912;28;20409;-77
2023/02/05 07:58:13;;;;;;;;;;;;;;;;;;4975105;28;19918;-77
2023/02/05 08:00:39;;;;;;;;;;;;;;;;;;4977390;28;19925;-78
2023/02/05 08:03:05;;;;;;;;;;;;;;;;;;4970975;28;19917;-77
2023/02/05 08:05:32;;;;;;;;;;;;;;;;;;4977482;28;19930;-78
2023/02/05 08:07:58;;;;;;;;;;;;;;;;;;4974290;28;19925;-77
2023/02/05 08:10:24;;;;;;;;;;;;;;;;;;4977331;28;20336;-77
2023/02/05 08:12:50;;;;;;;;;;;;;;;;;;4972453;28;19913;-79
2023/02/05 08:15:16;;;;;;;;;;;;;;;;;;4977467;28;19953;-77
2023/02/05 08:17:43;;;;;;;;;;;;;;;;;;4971983;28;20371;-77
2023/02/05 08:20:09;;;;;;;;;;;;;;;;;;4968419;28;19926;-77
2023/02/05 08:22:35;;;;;;;;;;;;;;;;;;4976741;28;20681;-77
2023/02/05 08:25:01;;;;;;;;;;;;;;;;;;4969006;28;19918;-76
2023/02/05 08:27:27;;;;;;;;;;;;;;;;;;4975060;28;19926;-76
2023/02/05 08:29:54;;;;;;;;;;;;;;;;;;4974123;28;19929;-76
2023/02/05 08:32:20;;;;;;;;;;;;;;;;;;4977482;28;19938;-76
2023/02/05 08:34:46;;;;;;;;;;;;;;;;;;4965211;28;19972;-76
2023/02/05 08:37:12;;;;;;;;;;;;;;;;;;4962637;28;19932;-75
2023/02/05 08:39:39;;;;;;;;;;;;;;;;;;4969275;28;19976;-76
2023/02/05 08:42:05;;;;;;;;;;;;;;;;;;4978718;28;20079;-76
2023/02/05 08:44:31;;;;;;;;;;;;;;;;;;4975791;28;19921;-76
2023/02/05 08:46:57;;;;;;;;;;;;;;;;;;4986015;28;19935;-77
2023/02/05 08:49:24;;;;;;;;;;;;;;;;;;4976831;28;20029;-78
2023/02/05 08:51:50;;;;;;;;;;;;;;;;;;4992017;28;20051;-77
2023/02/05 08:54:16;;;;;;;;;;;;;;;;;;4973430;28;20105;-77
2023/02/05 08:56:42;;;;;;;;;;;;;;;;;;4975947;28;19925;-76
2023/02/05 08:59:08;;;;;;;;;;;;;;;;;;4987422;28;19918;-75
2023/02/05 09:01:36;;;;;;;;;;;;;;;;;;4980718;28;20023;-76
2023/02/05 09:04:02;;;;;;;;;;;;;;;;;;4968981;28;19921;-75
2023/02/05 09:06:29;;;;;;;;;;;;;;;;;;4971197;28;19934;-75
2023/02/05 09:08:55;;;;;;;;;;;;;;;;;;4967341;28;20040;-74
2023/02/05 09:11:21;;;;;;;;;;;;;;;;;;4972328;28;20474;-75
2023/02/05 09:13:47;;;;;;;;;;;;;;;;;;4971377;28;19921;-75
2023/02/05 09:16:14;;;;;;;;;;;;;;;;;;4972627;28;19921;-76
2023/02/05 09:18:40;;;;;;;;;;;;;;;;;;4969298;28;19925;-75
2023/02/05 09:21:06;;;;;;;;;;;;;;;;;;4972116;28;20549;-76
2023/02/05 09:23:32;;;;;;;;;;;;;;;;;;4991140;28;20023;-76
2023/02/05 09:25:59;;;;;;;;;;;;;;;;;;4975056;28;19926;-74
2023/02/05 09:28:25;;;;;;;;;;;;;;;;;;4991815;28;19925;-75
2023/02/05 09:30:51;;;;;;;;;;;;;;;;;;4965257;28;20416;-76
2023/02/05 09:33:17;;;;;;;;;;;;;;;;;;4990529;28;20598;-76
2023/02/05 09:35:43;;;;;;;;;;;;;;;;;;4970928;28;19934;-75
2023/02/05 09:38:10;;;;;;;;;;;;;;;;;;4976000;28;19928;-75
2023/02/05 09:40:36;;;;;;;;;;;;;;;;;;4992931;28;19926;-75
2023/02/05 09:43:02;;;;;;;;;;;;;;;;;;4985695;28;19932;-75
2023/02/05 09:45:28;;;;;;;;;;;;;;;;;;4967259;28;20466;-74
2023/02/05 09:47:55;;;;;;;;;;;;;;;;;;4973119;28;20021;-74
2023/02/05 09:50:30;;;;;;;;;;;;;;;;;;4984375;28;19918;-76
2023/02/05 09:52:56;;;;;;;;;;;;;;;;;;4976366;28;19935;-76
2023/02/05 09:55:23;;;;;;;;;;;;;;;;;;4993613;28;19917;-76
2023/02/05 09:57:49;;;;;;;;;;;;;;;;;;4993763;28;20472;-75
2023/02/05 10:00:15;;;;;;;;;;;;;;;;;;4982423;28;19923;-74
2023/02/05 10:02:43;;;;;;;;;;;;;;;;;;4989724;28;20100;-75
2023/02/05 10:05:09;;;;;;;;;;;;;;;;;;4991771;28;19955;-73
2023/02/05 10:07:35;;;;;;;;;;;;;;;;;;4966199;28;20093;-76
2023/02/05 10:10:02;;;;;;;;;;;;;;;;;;4980215;28;20486;-75
2023/02/05 10:12:28;;;;;;;;;;;;;;;;;;4972250;28;19922;-75
2023/02/05 10:14:54;;;;;;;;;;;;;;;;;;4976053;28;19984;-75
2023/02/05 10:17:21;;;;;;;;;;;;;;;;;;4982767;28;19936;-76
2023/02/05 10:19:47;;;;;;;;;;;;;;;;;;4977658;28;19953;-75
2023/02/05 10:22:13;;;;;;;;;;;;;;;;;;4994691;28;19930;-78
2023/02/05 10:24:46;;;;;;;;;;;;;;;;;;4989849;28;19922;-75
2023/02/05 10:27:15;;;;;;;;;;;;;;;;;;4981466;28;19940;-77
2023/02/05 10:29:47;;;;;;;;;;;;;;;;;;4976143;28;19921;-76
2023/02/05 10:32:16;;;;;;;;;;;;;;;;;;4974563;28;20453;-77
2023/02/05 10:34:42;;;;;;;;;;;;;;;;;;4969646;28;19924;-78
2023/02/05 10:37:08;;;;;;;;;;;;;;;;;;4973214;28;19927;-78
2023/02/05 10:39:35;;;;;;;;;;;;;;;;;;4988936;28;19922;-78
2023/02/05 10:42:01;;;;;;;;;;;;;;;;;;4972709;28;19921;-78
2023/02/05 10:44:27;;;;;;;;;;;;;;;;;;4980120;28;21436;-76
2023/02/05 10:46:54;;;;;;;;;;;;;;;;;;4972772;28;19932;-77
2023/02/05 10:49:20;;;;;;;;;;;;;;;;;;4990971;28;19926;-76
2023/02/05 10:51:46;;;;;;;;;;;;;;;;;;4975860;28;19957;-75
2023/02/05 10:54:13;;;;;;;;;;;;;;;;;;4974707;28;20440;-73
2023/02/05 10:56:58;;;;;;;;;;;;;;;;;;4993653;28;20471;-76
2023/02/05 10:59:24;;;;;;;;;;;;;;;;;;4966676;28;19924;-76
2023/02/05 11:01:50;;;;;;;;;;;;;;;;;;4977273;28;20496;-76
2023/02/05 11:04:17;;;;;;;;;;;;;;;;;;4979284;28;20005;-77
2023/02/05 11:06:43;;;;;;;;;;;;;;;;;;4993262;28;19925;-77
2023/02/05 11:09:09;;;;;;;;;;;;;;;;;;4993128;28;19968;-76
2023/02/05 11:11:35;;;;;;;;;;;;;;;;;;4979385;28;19975;-76
2023/02/05 11:14:02;;;;;;;;;;;;;;;;;;4979505;28;19921;-76
2023/02/05 11:16:28;;;;;;;;;;;;;;;;;;4981407;28;19995;-75
2023/02/05 11:18:54;;;;;;;;;;;;;;;;;;4992961;28;19963;-76
2023/02/05 11:21:20;;;;;;;;;;;;;;;;;;4998321;28;19968;-78
2023/02/05 11:23:47;;;;;;;;;;;;;;;;;;4978958;28;19917;-76
2023/02/05 11:26:13;;;;;;;;;;;;;;;;;;4978833;28;19925;-76
2023/02/05 11:28:39;;;;;;;;;;;;;;;;;;4994585;28;19922;-76
2023/02/05 11:31:06;;;;;;;;;;;;;;;;;;4977743;28;19960;-74
2023/02/05 11:33:32;;;;;;;;;;;;;;;;;;4982468;28;19928;-75
2023/02/05 11:35:58;;;;;;;;;;;;;;;;;;4974642;28;19965;-75
2023/02/05 11:38:28;;;;;;;;;;;;;;;;;;4996228;28;19921;-76
2023/02/05 11:40:54;;;;;;;;;;;;;;;;;;4976512;28;19976;-75
2023/02/05 11:43:21;;;;;;;;;;;;;;;;;;4980256;28;19921;-76
2023/02/05 11:45:47;;;;;;;;;;;;;;;;;;4994294;28;19921;-76
2023/02/05 11:48:13;;;;;;;;;;;;;;;;;;4982354;28;19937;-76
2023/02/05 11:50:39;;;;;;;;;;;;;;;;;;4978243;28;21423;-76
2023/02/05 11:53:06;;;;;;;;;;;;;;;;;;4982320;28;19921;-76
2023/02/05 11:55:32;;;;;;;;;;;;;;;;;;4981679;28;20730;-76
2023/02/05 11:57:58;;;;;;;;;;;;;;;;;;4994639;28;19975;-76
2023/02/05 12:00:24;;;;;;;;;;;;;;;;;;4998103;28;20744;-76
2023/02/05 12:02:52;;;;;;;;;;;;;;;;;;4956387;28;19925;-76
2023/02/05 12:05:19;;;;;;;;;;;;;;;;;;4978414;28;19925;-76
2023/02/05 12:07:45;;;;;;;;;;;;;;;;;;4995448;28;20403;-76
2023/02/05 12:10:11;;;;;;;;;;;;;;;;;;4974653;28;19961;-76
2023/02/05 12:12:37;;;;;;;;;;;;;;;;;;4982389;28;19957;-76
2023/02/05 12:15:04;;;;;;;;;;;;;;;;;;4977901;28;19921;-76
2023/02/05 12:17:30;;;;;;;;;;;;;;;;;;4981467;28;19961;-76
2023/02/05 12:19:56;;;;;;;;;;;;;;;;;;4995228;28;19924;-75
2023/02/05 12:22:22;;;;;;;;;;;;;;;;;;4980347;28;19956;-76
2023/02/05 12:24:49;;;;;;;;;;;;;;;;;;4982013;28;19917;-75
2023/02/05 12:27:15;;;;;;;;;;;;;;;;;;4980955;28;20479;-75
2023/02/05 12:29:41;;;;;;;;;;;;;;;;;;4980510;28;19922;-75
2023/02/05 12:32:07;;;;;;;;;;;;;;;;;;4997375;28;19933;-75
2023/02/05 12:34:34;;;;;;;;;;;;;;;;;;4991773;28;19928;-74
2023/02/05 12:37:00;;;;;;;;;;;;;;;;;;4976549;28;19979;-75
2023/02/05 12:39:26;;;;;;;;;;;;;;;;;;4997767;28;19925;-75
2023/02/05 12:41:53;;;;;;;;;;;;;;;;;;4977757;28;19921;-75
2023/02/05 12:44:19;;;;;;;;;;;;;;;;;;4974897;28;19917;-75
2023/02/05 12:46:46;;;;;;;;;;;;;;;;;;4992854;28;19971;-76
2023/02/05 12:49:12;;;;;;;;;;;;;;;;;;4985296;28;20383;-76
2023/02/05 12:51:39;;;;;;;;;;;;;;;;;;4965866;28;20005;-76
2023/02/05 12:54:05;;;;;;;;;;;;;;;;;;4969489;28;20071;-76
2023/02/05 12:56:31;;;;;;;;;;;;;;;;;;4969845;28;19952;-77
2023/02/05 12:58:57;;;;;;;;;;;;;;;;;;4967250;28;19917;-75
2023/02/05 13:01:24;;;;;;;;;;;;;;;;;;4949716;28;20398;-75
2023/02/05 13:03:50;;;;;;;;;;;;;;;;;;4951435;28;19977;-75
2023/02/05 13:06:16;;;;;;;;;;;;;;;;;;4999033;28;19941;-76
2023/02/05 13:08:42;;;;;;;;;;;;;;;;;;4978555;28;19922;-76
2023/02/05 13:11:09;;;;;;;;;;;;;;;;;;4966774;28;19995;-76
2023/02/05 13:13:38;;;;;;;;;;;;;;;;;;4970552;28;19922;-76
2023/02/05 13:16:04;;;;;;;;;;;;;;;;;;4965817;28;20724;-75
2023/02/05 13:18:30;;;;;;;;;;;;;;;;;;4980902;28;20391;-76
2023/02/05 13:29:12;;;;;;;;;;;;;;;;;;4987889;28;19930;-80
2023/02/05 13:31:39;;;;;;;;;;;;;;;;;;4973721;28;20013;-79
2023/02/05 13:34:05;;;;;;;;;;;;;;;;;;4992711;28;19953;-77
2023/02/05 13:36:32;;;;;;;;;;;;;;;;;;4977455;28;19918;-78
2023/02/05 13:38:58;;;;;;;;;;;;;;;;;;4991101;28;19957;-78
2023/02/05 13:41:24;;;;;;;;;;;;;;;;;;4988989;28;19918;-77
2023/02/05 13:43:50;;;;;;;;;;;;;;;;;;4960719;28;19996;-78
2023/02/05 13:46:17;;;;;;;;;;;;;;;;;;4970319;28;19929;-78
2023/02/05 13:48:43;;;;;;;;;;;;;;;;;;4968465;28;19928;-80
2023/02/05 13:51:09;;;;;;;;;;;;;;;;;;4985863;28;19996;-80
2023/02/05 13:53:35;;;;;;;;;;;;;;;;;;4988178;28;19922;-80
2023/02/05 13:56:02;;;;;;;;;;;;;;;;;;4984787;28;19937;-77
2023/02/05 13:58:28;;;;;;;;;;;;;;;;;;4957786;28;19928;-76
2023/02/05 14:00:55;;;;;;;;;;;;;;;;;;4963500;28;19918;-76
2023/02/05 14:03:21;;;;;;;;;;;;;;;;;;4990260;28;19925;-78
2023/02/05 14:05:47;;;;;;;;;;;;;;;;;;4953968;28;19921;-78
2023/02/05 14:08:14;;;;;;;;;;;;;;;;;;4972386;28;19976;-79
2023/02/05 14:10:40;;;;;;;;;;;;;;;;;;4969228;28;19918;-78
2023/02/05 14:13:06;;;;;;;;;;;;;;;;;;4985020;28;19943;-78
2023/02/05 14:15:32;;;;;;;;;;;;;;;;;;4976833;28;20365;-78
2023/02/05 14:17:59;;;;;;;;;;;;;;;;;;4970390;28;19937;-78
2023/02/05 14:20:25;;;;;;;;;;;;;;;;;;4971323;28;19921;-79
2023/02/05 14:22:51;;;;;;;;;;;;;;;;;;4983662;28;19925;-78
2023/02/05 14:25:18;;;;;;;;;;;;;;;;;;4976250;28;19921;-78
2023/02/05 14:27:47;;;;;;;;;;;;;;;;;;4975557;28;20970;-77
2023/02/05 14:30:13;;;;;;;;;;;;;;;;;;4977715;28;19926;-79
2023/02/05 14:32:39;;;;;;;;;;;;;;;;;;4979826;28;19924;-79
2023/02/05 14:35:05;;;;;;;;;;;;;;;;;;4974089;28;20313;-79
2023/02/05 14:37:32;;;;;;;;;;;;;;;;;;4991546;28;20656;-79
2023/02/05 14:39:58;;;;;;;;;;;;;;;;;;4967789;28;20090;-78
2023/02/05 14:42:24;;;;;;;;;;;;;;;;;;4996835;28;19918;-79
2023/02/05 14:44:51;;;;;;;;;;;;;;;;;;4977460;28;20483;-79
2023/02/05 14:47:17;;;;;;;;;;;;;;;;;;4977324;28;20562;-81
2023/02/05 14:49:44;;;;;;;;;;;;;;;;;;4974737;28;19922;-77
2023/02/05 14:52:11;;;;;;;;;;;;;;;;;;4985762;28;19929;-79
2023/02/05 14:54:37;;;;;;;;;;;;;;;;;;4975631;28;19922;-78
2023/02/05 14:57:03;;;;;;;;;;;;;;;;;;4965736;28;19918;-77
2023/02/05 14:59:38;;;;;;;;;;;;;;;;;;4985841;28;19921;-77
2023/02/05 15:02:04;;;;;;;;;;;;;;;;;;4965171;28;19925;-77
2023/02/05 15:04:31;;;;;;;;;;;;;;;;;;4966682;28;19926;-77
2023/02/05 15:06:57;;;;;;;;;;;;;;;;;;4969983;28;19937;-77
2023/02/05 15:09:24;;;;;;;;;;;;;;;;;;4993772;28;19925;-79
2023/02/05 15:11:51;;;;;;;;;;;;;;;;;;4994196;28;20284;-78
2023/02/05 15:14:21;;;;;;;;;;;;;;;;;;4998190;28;19921;-77
2023/02/05 15:16:47;;;;;;;;;;;;;;;;;;4974752;28;19937;-77
2023/02/05 15:19:21;;;;;;;;;;;;;;;;;;4993860;28;20336;-76
2023/02/05 15:21:50;;;;;;;;;;;;;;;;;;4973658;28;20385;-76
2023/02/05 15:24:19;;;;;;;;;;;;;;;;;;4949536;28;19926;-76
2023/02/05 15:26:46;;;;;;;;;;;;;;;;;;4974031;28;19922;-77
2023/02/05 15:29:14;;;;;;;;;;;;;;;;;;4993181;28;19989;-77
2023/02/05 15:31:41;;;;;;;;;;;;;;;;;;4998134;28;19924;-77
2023/02/05 15:34:08;;;;;;;;;;;;;;;;;;4998229;28;19924;-77
2023/02/05 15:36:34;;;;;;;;;;;;;;;;;;4976839;28;20333;-76
2023/02/05 15:39:01;;;;;;;;;;;;;;;;;;4972992;28;19999;-77
2023/02/05 15:41:34;;;;;;;;;;;;;;;;;;4975394;28;19917;-77
2023/02/05 15:44:01;;;;;;;;;;;;;;;;;;4951436;28;19928;-77
2023/02/05 15:46:27;;;;;;;;;;;;;;;;;;4988657;28;19921;-77
2023/02/05 15:48:53;;;;;;;;;;;;;;;;;;4977938;28;19926;-78
2023/02/05 15:51:21;;;;;;;;;;;;;;;;;;4970737;28;20297;-78
2023/02/05 15:53:47;;;;;;;;;;;;;;;;;;4992986;28;19921;-75
2023/02/05 15:56:13;;;;;;;;;;;;;;;;;;4994062;28;19930;-77
2023/02/05 15:58:40;;;;;;;;;;;;;;;;;;4990960;28;19968;-76
2023/02/05 16:01:06;;;;;;;;;;;;;;;;;;4974396;28;20122;-77
2023/02/05 16:03:35;;;;;;;;;;;;;;;;;;4973942;28;19924;-76
2023/02/05 16:06:01;;;;;;;;;;;;;;;;;;4952543;28;19940;-75
2023/02/05 16:08:28;;;;;;;;;;;;;;;;;;4990369;28;19925;-76
2023/02/05 16:10:56;;;;;;;;;;;;;;;;;;4949318;28;19973;-77
2023/02/05 16:13:22;;;;;;;;;;;;;;;;;;4975173;28;19944;-77
2023/02/05 16:15:49;;;;;;;;;;;;;;;;;;4939476;28;19996;-76
2023/02/05 16:18:15;;;;;;;;;;;;;;;;;;4989787;28;19929;-76
2023/02/05 16:20:41;;;;;;;;;;;;;;;;;;4967852;28;19968;-75
2023/02/05 16:23:07;;;;;;;;;;;;;;;;;;4966334;28;19922;-77
2023/02/05 16:25:34;;;;;;;;;;;;;;;;;;4988603;28;20418;-76
2023/02/05 16:28:00;;;;;;;;;;;;;;;;;;4966639;28;19937;-76
2023/02/05 16:30:26;;;;;;;;;;;;;;;;;;4972918;28;20289;-75
2023/02/05 16:32:52;;;;;;;;;;;;;;;;;;4958150;28;19918;-76
2023/02/05 16:35:18;;;;;;;;;;;;;;;;;;4966271;28;19945;-79
2023/02/05 16:37:45;;;;;;;;;;;;;;;;;;4973629;28;19913;-75
2023/02/05 16:40:11;;;;;;;;;;;;;;;;;;4978175;28;20317;-76
2023/02/05 16:42:42;;;;;;;;;;;;;;;;;;4967980;28;19976;-76
2023/02/05 16:45:08;;;;;;;;;;;;;;;;;;4966189;28;19961;-77
2023/02/05 16:47:34;;;;;;;;;;;;;;;;;;4965014;28;19930;-76
2023/02/05 16:50:00;;;;;;;;;;;;;;;;;;4963454;28;19922;-76
2023/02/05 16:52:27;;;;;;;;;;;;;;;;;;4972093;28;19922;-76